< Typhoon 197112 1971 Season Typhoon 197114 >
Typhoon 197113 (IVY)
General InformationTrack Information on Google Maps || NewsDisaster Info.ResourceGoogle EarthGE AnimationAtom FeedGeoJSON
Detalied Best Track (Time Zone = UTC)
Year Month Day Hour Lat. Long. Pressure (hPa) Wind (kt) Class Image Chart
1971 7 4 00 23.0 136.0 1004 0 2 -- Chart
1971 7 4 06 22.5 135.4 1004 0 2 -- Chart
1971 7 4 12 21.8 134.7 1004 0 2 -- Chart
1971 7 4 18 21.5 135.0 1002 0 2 -- Chart
1971 7 5 00 21.7 135.3 1000 0 9 -- Chart
1971 7 5 06 22.6 134.8 1000 0 9 -- Chart
1971 7 5 12 23.8 134.5 1000 0 9 -- Chart
1971 7 5 18 26.2 134.2 994 0 9 -- Chart
1971 7 6 00 28.3 134.0 994 0 9 -- Chart
1971 7 6 06 29.3 132.8 992 0 9 -- Chart
1971 7 6 12 29.8 132.8 990 0 9 -- Chart
1971 7 6 18 30.5 133.2 990 0 9 -- Chart
1971 7 7 00 32.4 134.5 990 0 9 -- Chart
1971 7 7 06 33.6 136.3 990 0 9 -- Chart
1971 7 7 12 34.9 138.0 992 0 9 -- Chart
1971 7 7 18 36.0 140.4 994 0 9 -- Chart
1971 7 8 00 37.0 142.3 996 0 2 -- Chart
1971 7 8 06 37.8 145.0 994 0 9 -- Chart
1971 7 8 12 38.0 148.0 996 0 9 -- Chart
1971 7 8 18 38.0 151.6 996 0 6 -- Chart
1971 7 9 00 38.3 155.2 998 0 6 -- Chart
1971 7 9 06 38.8 158.2 998 0 6 -- Chart
1971 7 9 12 38.9 161.8 998 0 6 -- Chart
1971 7 9 18 39.4 165.0 998 0 6 -- Chart
1971 7 10 00 40.0 167.7 996 0 6 -- Chart
1971 7 10 06 41.0 172.0 998 0 6 -- Chart
1971 7 10 12 43.7 175.6 998 0 6 -- Chart
1971 7 10 18 46.0 179.0 996 0 6 -- Chart
Japan Meteorological Agency Best Track Data | Correction Date : 2013-03-19
< Typhoon 197112 1971 Season Typhoon 197114 >

Help